METAR Data
IDs: Format: Raw Decoded Include TAF

Data at: 1716 UTC 21 Sep 2018

KLHB 211655Z AUTO 14007KT 10SM SCT018 BKN025 OVC034 30/25 A2998 RMK AO2 T02950245
KLHB 211635Z AUTO 15006KT 10SM BKN016 OVC025 28/25 A2998 RMK AO2 LTG DSNT E T02820246
KLHB 211615Z AUTO 14005KT 10SM OVC013 28/25 A2999 RMK AO2 T02770248
KLHB 211555Z AUTO 16008KT 10SM BKN011 BKN016 28/25 A2999 RMK AO2 T02750254
KLHB 211535Z AUTO 13006KT 10SM BKN009 OVC013 27/25 A2999 RMK AO2 T02700253
KLHB 211515Z AUTO 14005KT 10SM OVC009 27/25 A2999 RMK AO2 T02650252
KLHB 211455Z AUTO 14006KT 10SM BKN009 OVC013 26/25 A2998 RMK AO2 T02640253
KLHB 211435Z AUTO 13005KT 10SM OVC007 26/25 A2997 RMK AO2 T02620253
KLHB 211415Z AUTO 15006KT 10SM OVC007 26/25 A2997 RMK AO2 T02580254
KLHB 211355Z AUTO 12004KT 10SM OVC007 26/25 A2997 RMK AO2 T02550253
KLHB 211335Z AUTO 12004KT 10SM OVC007 25/25 A2997 RMK AO2 T02530252
KLHB 211315Z AUTO 12004KT 7SM OVC007 25/25 A2997 RMK AO2 LTG DSNT W T02520252
KLHB 211255Z AUTO 12003KT 7SM BKN009 25/25 A2996 RMK AO2 T02510251
KLHB 211235Z AUTO 13004KT 10SM BKN009 25/25 A2996 RMK AO2 T02500250
KLHB 211215Z AUTO 12004KT 10SM CLR 25/25 A2995 RMK AO2 T02500250
KLHB 211155Z AUTO 13004KT 10SM CLR 25/25 A2995 RMK AO2 60002 70023 T02490249 10249 20236
KLHB 211135Z AUTO 12004KT 10SM SCT011 25/25 A2995 RMK AO2 T02480248
KLHB 211115Z AUTO 13004KT 10SM CLR 25/25 A2995 RMK AO2 T02480248
KLHB 211055Z AUTO 12004KT 10SM CLR 25/25 A2995 RMK AO2 T02470247
KLHB 211035Z AUTO 12003KT 10SM CLR 25/25 A2995 RMK AO2 T02460246
KLHB 211015Z AUTO 13003KT 10SM -RA CLR 25/25 A2995 RMK AO2 T02450245
KLHB 210955Z AUTO 00000KT 10SM SCT100 25/25 A2995 RMK AO2 P0001 T02450245
KLHB 210935Z AUTO 12003KT 7SM RA SCT075 BKN090 BKN120 25/25 A2995 RMK AO2 P0001 T02450245
KLHB 210915Z AUTO 12003KT 10SM -RA SCT075 BKN100 BKN120 25/25 A2995 RMK AO2 T02450245
KLHB 210855Z AUTO 13003KT 10SM CLR 24/24 A2995 RMK AO2 60001 T02430243
KLHB 210835Z AUTO 00000KT 10SM CLR 24/24 A2994 RMK AO2 T02430242
KLHB 210815Z AUTO 12003KT 10SM CLR 24/24 A2994 RMK AO2 T02420242
KLHB 210755Z AUTO 13003KT 10SM -RA SCT050 SCT060 SCT085 24/24 A2995 RMK AO2 P0001 T02430241
KLHB 210735Z AUTO 14003KT 10SM -RA SCT017 SCT085 SCT110 24/24 A2995 RMK AO2 T02430240
KLHB 210715Z AUTO 13004KT 10SM SCT019 SCT060 24/24 A2995 RMK AO2 T02430240
KLHB 210655Z AUTO 12004KT 10SM SCT022 24/24 A2995 RMK AO2 T02410238
KLHB 210635Z AUTO 13005KT 10SM CLR 24/24 A2996 RMK AO2 T02400236
KLHB 210615Z AUTO 13004KT 10SM CLR 24/24 A2996 RMK AO2 T02380235
KLHB 210555Z AUTO 13003KT 10SM SCT100 24/23 A2996 RMK AO2 60006 T02360234 10263 20227 403110227
KLHB 210535Z AUTO 13003KT 10SM BKN110 24/23 A2997 RMK AO2 T02350232
KLHB 210515Z AUTO 11003KT 10SM BKN110 24/23 A2997 RMK AO2 T02350232
KLHB 210455Z AUTO 00000KT 10SM BKN110 23/23 A2997 RMK AO2 T02320230
KLHB 210435Z AUTO 00000KT 10SM SCT025 SCT035 OVC100 23/23 A2998 RMK AO2 T02310230
KLHB 210415Z AUTO 11003KT 10SM SCT025 BKN035 OVC110 23/23 A2998 RMK AO2 T02300228
KLHB 210355Z AUTO 00000KT 10SM BKN025 BKN040 BKN120 23/23 A2998 RMK AO2 T02300226
KLHB 210335Z AUTO 00000KT 10SM SCT025 SCT031 BKN120 23/23 A2997 RMK AO2 T02300226
KLHB 210315Z AUTO 00000KT 10SM BKN120 23/22 A2997 RMK AO2 T02300224
KLHB 210255Z AUTO 00000KT 10SM SCT120 23/22 A2997 RMK AO2 60006 T02280223
KLHB 210235Z AUTO 00000KT 10SM -RA SCT120 23/22 A2996 RMK AO2 T02270221
KLHB 210215Z AUTO 00000KT 10SM -RA CLR 23/22 A2996 RMK AO2 T02290222
KLHB 210155Z AUTO 00000KT 10SM SCT095 23/22 A2995 RMK AO2 P0001 T02290222
KLHB 210135Z AUTO 13004KT 10SM -DZ SCT095 SCT120 23/23 A2995 RMK AO2 P0001 T02300225
KLHB 210115Z AUTO 00000KT 10SM -RA SCT070 BKN095 BKN120 23/23 A2996 RMK AO2 P0001 T02300226
KLHB 210055Z AUTO 13006KT 10SM RA SCT011 SCT048 OVC095 23/23 A2995 RMK AO2 LTG DSNT NE P0005 T02320225
KLHB 210035Z AUTO 15006KT 7SM VCTSRA SCT006 BKN048 OVC100 23/23 A2995 RMK AO2 LTG DSNT NW THRU SE P0003 T02330229
KLHB 210015Z AUTO 20010G21KT 10SM -TSRA SCT028 SCT055 BKN110 25/22 A2995 RMK AO2 LTG DSNT ALQS T02470223
KLHB 202355Z AUTO 11004KT 10SM VCTS CLR 26/23 A2992 RMK AO2 LTG DSNT SE THRU SW 60015 T02640227 10311 20248
KLHB 202335Z AUTO 08003KT 10SM VCTS CLR 27/23 A2991 RMK AO2 LTG DSNT ALQS T02650226
KLHB 202315Z AUTO 09004KT 10SM SCT120 27/22 A2990 RMK AO2 LTG DSNT SW AND W T02650223
KLHB 202255Z AUTO 07003KT 10SM SCT050 SCT065 BKN110 26/23 A2992 RMK AO2 LTG DSNT SW T02600226
KLHB 202235Z AUTO 07006KT 10SM SCT055 SCT065 SCT110 27/22 A2993 RMK AO2 LTG DSNT SW T02660219
KLHB 202215Z AUTO 07009KT 10SM SCT070 27/22 A2992 RMK AO2 LTG DSNT SW T02740222
KLHB 202155Z AUTO 07008G18KT 10SM SCT070 SCT080 27/21 A2993 RMK AO2 LTG DSNT S AND SW T02660208
KLHB 202135Z AUTO 08003KT 10SM CLR 29/22 A2992 RMK AO2 LTG DSNT N AND NE T02910223
KLHB 202115Z AUTO 14009G15KT 10SM VCTS SCT023 SCT030 29/23 A2992 RMK AO2 LTG DSNT NE AND E T02860230
KLHB 202055Z AUTO 00000KT 10SM TS CLR 27/24 A2992 RMK AO2 LTG DSNT NE THRU S P0015 60015 T02740236
KLHB 202035Z AUTO 21003KT 10SM SCT015 SCT037 SCT050 26/24 A2992 RMK AO2 LTG DSNT ALQS P0015 T02630237
KLHB 202015Z AUTO 20004KT 3SM -RA SCT015 BKN034 BKN049 25/22 A2994 RMK AO2 LTG DSNT ALQS P0015 T02480221
KLHB 201955Z AUTO 21006KT 10SM VCTS SCT036 SCT044 SCT060 27/24 A2995 RMK AO2 LTG DSNT E THRU W T02710240
KLHB 201935Z AUTO 00000KT 10SM TS SCT036 SCT045 SCT060 29/23 A2994 RMK AO2 LTG DSNT E THRU SW T02880234
KLHB 201915Z AUTO 13004KT 10SM SCT065 SCT085 29/23 A2994 RMK AO2 LTG DSNT E THRU SW T02920231
KLHB 201855Z AUTO 14005KT 10SM SCT035 SCT041 30/23 A2995 RMK AO2 LTG DSNT S AND SW T02950228
KLHB 201835Z AUTO 17005KT 10SM VCTS SCT033 SCT041 SCT065 30/23 A2996 RMK AO2 LTG DSNT S AND W T03000225
KLHB 201815Z AUTO 17007KT 10SM SCT065 31/23 A2997 RMK AO2 LTG DSNT SW AND W T03080230
KLHB 201755Z AUTO 14007KT 10SM SCT029 SCT034 30/23 A2997 RMK AO2 LTG DSNT SW T03030226 10304 20233
KLHB 201735Z AUTO 17007KT 10SM SCT028 SCT034 30/23 A2999 RMK AO2 LTG DSNT SW T02990226
KLHB 201715Z AUTO 14004KT 10SM CLR 29/23 A2999 RMK AO2 LTG DSNT SW T02930226
KLHB 201655Z AUTO 17007KT 10SM SCT027 29/23 A3000 RMK AO2 LTG DSNT SW T02930229
KLHB 201635Z AUTO 17006KT 10SM SCT022 29/23 A3000 RMK AO2 T02930231
KLHB 201615Z AUTO 17006KT 10SM BKN020 BKN028 29/24 A3000 RMK AO2 T02900237
KLHB 201555Z AUTO 16006KT 10SM SCT016 29/24 A3000 RMK AO2 T02890239
KLHB 201535Z AUTO 17007KT 10SM SCT013 28/24 A3000 RMK AO2 LTG DSNT SW T02810244
KLHB 201515Z AUTO 16005KT 10SM SCT011 27/24 A3000 RMK AO2 T02710243
KLHB 201455Z AUTO 15005KT 10SM SCT011 27/25 A2999 RMK AO2 T02730246
KLHB 201435Z AUTO 15007KT 10SM CLR 27/24 A2999 RMK AO2 T02680242
KLHB 201415Z AUTO 13003KT 10SM CLR 26/24 A2999 RMK AO2 T02580239
KLHB 201355Z AUTO 11004KT 10SM CLR 25/24 A2998 RMK AO2 T02500236
KLHB 201335Z AUTO 13003KT 10SM CLR 24/24 A2998 RMK AO2 T02440236
KLHB 201315Z AUTO 13003KT 10SM CLR 24/24 A2997 RMK AO2 T02380235
KLHB 201255Z AUTO 00000KT 10SM CLR 24/23 A2997 RMK AO2 T02350233
KLHB 201235Z AUTO 00000KT 10SM SCT013 23/23 A2997 RMK AO2 T02330232
KLHB 201215Z AUTO 00000KT 10SM SCT013 23/23 A2996 RMK AO2 T02330232
KLHB 201155Z AUTO 12003KT 10SM CLR 23/23 A2996 RMK AO2 T02340232 10252 20232
KLHB 201135Z AUTO 13003KT 10SM CLR 23/23 A2996 RMK AO2 T02330231
KLHB 201115Z AUTO 13003KT 10SM CLR 23/23 A2995 RMK AO2 T02330230
KLHB 201055Z AUTO 13003KT 10SM CLR 23/23 A2995 RMK AO2 T02330230
KLHB 201035Z AUTO 13004KT 10SM CLR 23/23 A2994 RMK AO2 T02330230
KLHB 201015Z AUTO 12004KT 10SM CLR 24/23 A2994 RMK AO2 T02350230
KLHB 200955Z AUTO 14003KT 10SM CLR 24/23 A2994 RMK AO2 T02350230
KLHB 200935Z AUTO 14003KT 10SM CLR 24/23 A2995 RMK AO2 T02350230
KLHB 200915Z AUTO 15003KT 10SM CLR 24/23 A2995 RMK AO2 T02360228
KLHB 200855Z AUTO 00000KT 10SM CLR 24/23 A2995 RMK AO2 T02400229
KLHB 200835Z AUTO 12003KT 10SM CLR 24/23 A2996 RMK AO2 T02400228
KLHB 200815Z AUTO 00000KT 10SM CLR 24/23 A2996 RMK AO2 T02410228
KLHB 200755Z AUTO 13003KT 10SM CLR 25/23 A2995 RMK AO2 T02450230
KLHB 200735Z AUTO 14004KT 10SM CLR 25/23 A2996 RMK AO2 T02450228
KLHB 200715Z AUTO 11003KT 10SM CLR 25/23 A2997 RMK AO2 T02450228
KLHB 200655Z AUTO 11003KT 10SM CLR 25/23 A2997 RMK AO2 T02450228
KLHB 200635Z AUTO 14004KT 10SM CLR 25/23 A2997 RMK AO2 T02470227
KLHB 200615Z AUTO 13004KT 10SM CLR 25/23 A2997 RMK AO2 T02500225
KLHB 200555Z AUTO 14004KT 10SM CLR 25/22 A2997 RMK AO2 T02520223 10321 20252 403420226
KLHB 200535Z AUTO 14005KT 10SM CLR 26/22 A2997 RMK AO2 T02560222